Windthorst, TX

3:47 PM CDT on September 02, 2014 (GMT -0500)
Archer City | Change Station
CLOSE
Current Station
Personal Weather Station
Location: Archer City, TX
Elevation: 1089 ft
Nearby Weather Stations

Elev 1089 ft 33.58 °N, 98.63 °W | Updated 3 seconds ago

Clear
Clear
97.9 °F
Feels Like 113 °F
N
10.7
Wind Variable Wind from SE
Gusts 17.4 mph

Today
High -- | Low -- °F
--% Chance of Precip.
Yesterday
High -- | Low -- °F
Precip. -- in
7:08 AM 7:57 PM
First Quarter, 55% visible
Pressure 29.90 in
Visibility 10.0 miles
Clouds Scattered Clouds 6500 ft
Heat Index 113 °F
Dew Point 76 °F
Humidity 50%
Rainfall 0.00 in
Snow Depth Not available.
UV 6 out of 12
Pollen 11.20 out of 12
Air Quality Not available.
Flu Activity Not available.
METAR KCWC 022035Z AUTO 13011G23KT 10SM SCT065 37/16 A2990 RMK AO2 T03740163

More Conditions Fewer Conditions

Pressure 29.90 in
Visibility 10.0 miles
Clouds Scattered Clouds 6500 ft
Heat Index 113 °F
Dew Point 76 °F
Humidity 50%
Rainfall 0.00 in
Snow Depth Not available.
UV 6 out of 12
Pollen 11.20 out of 12
Air Quality Not available.
Flu Activity Not available.
METAR KCWC 022035Z AUTO 13011G23KT 10SM SCT065 37/16 A2990 RMK AO2 T03740163

More Conditions Fewer Conditions

10-Day Weather Forecast

Almanac

Astronomy

Sep. 02, 2014 Rise Set
Actual Time 7:08 AM CDT 7:57 PM CDT
Civil Twilight 6:43 AM CDT 8:23 PM CDT
Nautical Twilight 6:13 AM CDT 8:52 PM CDT
Astronomical Twilight 5:42 AM CDT 9:23 PM CDT
Moon 2:33 PM CDT 12:21 AM CDT
Length of Visible Light 13h 40m
Length of Day
12h 49m
Tomorrow will be 1m 59s shorter.
First Quarter, 55% of the Moon is Illuminated
Today
First Quarter
Sep 8
Full
Sep 15
Last Quarter
Sep 24
New
Oct 1
First Quarter

Today's Extremes

State Highs State Lows

Community

WunderPhotos

Upload Photos

1,749,763 photos uploaded!

WunderBlogs® & News

Nearby

Snow Depth

Station Depth Elevation
No new snow has been reported.

Earthquake Activity

City Distance Mag. Time & Date
No recent earthquake activity has been reported nearby.
Minimum magnitude displayed is 2.5.

Coastal Water Temperatures

Place Temperature
No Stations Reporting

Nearby Weather Stations